sensor_id;sensor_type;location;lat;lon;timestamp;P1;durP1;ratioP1;P2;durP2;ratioP2
70450;SDS011;58869;51.982;4.450;2023-04-24T00:01:41;3.82;;;3.82;;
70450;SDS011;58869;51.982;4.450;2023-04-24T00:04:07;4.29;;;4.29;;
70450;SDS011;58869;51.982;4.450;2023-04-24T00:06:36;4.71;;;4.71;;
70450;SDS011;58869;51.982;4.450;2023-04-24T00:09:02;5.56;;;5.56;;
70450;SDS011;58869;51.982;4.450;2023-04-24T00:11:29;6.90;;;6.90;;
70450;SDS011;58869;51.982;4.450;2023-04-24T00:13:55;5.17;;;5.17;;
70450;SDS011;58869;51.982;4.450;2023-04-24T00:16:21;4.10;;;4.10;;
70450;SDS011;58869;51.982;4.450;2023-04-24T00:18:47;4.16;;;4.16;;
70450;SDS011;58869;51.982;4.450;2023-04-24T00:21:13;4.11;;;4.11;;
70450;SDS011;58869;51.982;4.450;2023-04-24T00:23:40;3.24;;;3.24;;
70450;SDS011;58869;51.982;4.450;2023-04-24T00:26:06;2.72;;;2.72;;
70450;SDS011;58869;51.982;4.450;2023-04-24T00:28:32;3.32;;;3.32;;
70450;SDS011;58869;51.982;4.450;2023-04-24T00:30:59;3.60;;;3.60;;
70450;SDS011;58869;51.982;4.450;2023-04-24T00:33:24;2.87;;;2.87;;
70450;SDS011;58869;51.982;4.450;2023-04-24T00:35:50;2.32;;;2.32;;
70450;SDS011;58869;51.982;4.450;2023-04-24T00:38:19;2.17;;;2.17;;
70450;SDS011;58869;51.982;4.450;2023-04-24T00:40:44;2.19;;;2.19;;
70450;SDS011;58869;51.982;4.450;2023-04-24T00:43:10;2.48;;;2.48;;
70450;SDS011;58869;51.982;4.450;2023-04-24T00:45:37;2.55;;;2.55;;
70450;SDS011;58869;51.982;4.450;2023-04-24T00:48:02;2.01;;;2.01;;
70450;SDS011;58869;51.982;4.450;2023-04-24T00:50:29;1.94;;;1.94;;
70450;SDS011;58869;51.982;4.450;2023-04-24T00:52:54;2.04;;;2.04;;
70450;SDS011;58869;51.982;4.450;2023-04-24T00:55:20;1.88;;;1.88;;
70450;SDS011;58869;51.982;4.450;2023-04-24T00:57:46;1.49;;;1.49;;
70450;SDS011;58869;51.982;4.450;2023-04-24T01:00:12;1.69;;;1.69;;
70450;SDS011;58869;51.982;4.450;2023-04-24T01:02:39;1.45;;;1.45;;
70450;SDS011;58869;51.982;4.450;2023-04-24T01:05:10;1.86;;;1.86;;
70450;SDS011;58869;51.982;4.450;2023-04-24T01:07:37;1.94;;;1.94;;
70450;SDS011;58869;51.982;4.450;2023-04-24T01:10:05;2.19;;;2.19;;
70450;SDS011;58869;51.982;4.450;2023-04-24T01:12:33;2.14;;;2.14;;
70450;SDS011;58869;51.982;4.450;2023-04-24T01:14:59;2.24;;;2.24;;
70450;SDS011;58869;51.982;4.450;2023-04-24T01:17:26;1.97;;;1.97;;
70450;SDS011;58869;51.982;4.450;2023-04-24T01:19:54;1.88;;;1.88;;
70450;SDS011;58869;51.982;4.450;2023-04-24T01:22:31;1.48;;;1.48;;
70450;SDS011;58869;51.982;4.450;2023-04-24T01:25:01;1.02;;;1.02;;
70450;SDS011;58869;51.982;4.450;2023-04-24T01:27:48;0.97;;;0.97;;
70450;SDS011;58869;51.982;4.450;2023-04-24T01:30:22;0.84;;;0.84;;
70450;SDS011;58869;51.982;4.450;2023-04-24T01:32:54;0.72;;;0.72;;
70450;SDS011;58869;51.982;4.450;2023-04-24T01:35:23;0.66;;;0.66;;
70450;SDS011;58869;51.982;4.450;2023-04-24T01:37:59;0.67;;;0.67;;
70450;SDS011;58869;51.982;4.450;2023-04-24T01:40:30;0.72;;;0.72;;
70450;SDS011;58869;51.982;4.450;2023-04-24T01:43:02;0.82;;;0.82;;
70450;SDS011;58869;51.982;4.450;2023-04-24T01:45:40;0.91;;;0.91;;
70450;SDS011;58869;51.982;4.450;2023-04-24T01:48:13;1.06;;;1.06;;
70450;SDS011;58869;51.982;4.450;2023-04-24T01:50:47;0.89;;;0.89;;
70450;SDS011;58869;51.982;4.450;2023-04-24T01:53:19;0.95;;;0.95;;
70450;SDS011;58869;51.982;4.450;2023-04-24T01:55:44;0.95;;;0.95;;
70450;SDS011;58869;51.982;4.450;2023-04-24T01:58:10;0.82;;;0.82;;
70450;SDS011;58869;51.982;4.450;2023-04-24T02:00:48;1.13;;;1.13;;
70450;SDS011;58869;51.982;4.450;2023-04-24T02:03:19;1.18;;;1.18;;
70450;SDS011;58869;51.982;4.450;2023-04-24T02:05:45;1.25;;;1.25;;
70450;SDS011;58869;51.982;4.450;2023-04-24T02:08:10;1.20;;;1.20;;
70450;SDS011;58869;51.982;4.450;2023-04-24T02:10:36;1.27;;;1.27;;
70450;SDS011;58869;51.982;4.450;2023-04-24T02:13:04;1.47;;;1.47;;
70450;SDS011;58869;51.982;4.450;2023-04-24T02:15:39;1.47;;;1.47;;
70450;SDS011;58869;51.982;4.450;2023-04-24T02:20:59;1.75;;;1.75;;
70450;SDS011;58869;51.982;4.450;2023-04-24T02:23:25;1.89;;;1.89;;
70450;SDS011;58869;51.982;4.450;2023-04-24T02:25:52;2.09;;;2.09;;
70450;SDS011;58869;51.982;4.450;2023-04-24T02:28:19;2.05;;;2.05;;
70450;SDS011;58869;51.982;4.450;2023-04-24T02:30:45;2.49;;;2.49;;
70450;SDS011;58869;51.982;4.450;2023-04-24T02:33:11;2.61;;;2.61;;
70450;SDS011;58869;51.982;4.450;2023-04-24T02:35:36;2.35;;;2.35;;
70450;SDS011;58869;51.982;4.450;2023-04-24T02:38:04;2.05;;;2.05;;
70450;SDS011;58869;51.982;4.450;2023-04-24T02:40:31;1.78;;;1.78;;
70450;SDS011;58869;51.982;4.450;2023-04-24T02:43:03;1.90;;;1.90;;
70450;SDS011;58869;51.982;4.450;2023-04-24T02:45:37;1.82;;;1.82;;
70450;SDS011;58869;51.982;4.450;2023-04-24T02:48:03;1.64;;;1.64;;
70450;SDS011;58869;51.982;4.450;2023-04-24T02:50:57;0.96;;;0.96;;
70450;SDS011;58869;51.982;4.450;2023-04-24T02:53:26;0.83;;;0.83;;
70450;SDS011;58869;51.982;4.450;2023-04-24T02:55:58;0.71;;;0.71;;
70450;SDS011;58869;51.982;4.450;2023-04-24T02:58:23;0.67;;;0.67;;
70450;SDS011;58869;51.982;4.450;2023-04-24T03:00:54;0.90;;;0.90;;
70450;SDS011;58869;51.982;4.450;2023-04-24T03:03:23;1.06;;;1.03;;
70450;SDS011;58869;51.982;4.450;2023-04-24T03:05:51;1.03;;;0.97;;
70450;SDS011;58869;51.982;4.450;2023-04-24T03:08:16;1.19;;;1.11;;
70450;SDS011;58869;51.982;4.450;2023-04-24T03:10:42;1.34;;;1.24;;
70450;SDS011;58869;51.982;4.450;2023-04-24T03:13:09;1.30;;;1.21;;
70450;SDS011;58869;51.982;4.450;2023-04-24T03:15:34;1.34;;;1.25;;
70450;SDS011;58869;51.982;4.450;2023-04-24T03:18:00;1.38;;;1.37;;
70450;SDS011;58869;51.982;4.450;2023-04-24T03:20:26;1.30;;;1.30;;
70450;SDS011;58869;51.982;4.450;2023-04-24T03:22:51;1.28;;;1.28;;
70450;SDS011;58869;51.982;4.450;2023-04-24T03:25:17;1.15;;;1.15;;
70450;SDS011;58869;51.982;4.450;2023-04-24T03:27:43;1.30;;;1.30;;
70450;SDS011;58869;51.982;4.450;2023-04-24T03:30:08;1.32;;;1.32;;
70450;SDS011;58869;51.982;4.450;2023-04-24T03:32:36;1.39;;;1.39;;
70450;SDS011;58869;51.982;4.450;2023-04-24T03:35:04;1.38;;;1.38;;
70450;SDS011;58869;51.982;4.450;2023-04-24T03:37:35;1.48;;;1.48;;
70450;SDS011;58869;51.982;4.450;2023-04-24T03:40:30;1.23;;;1.23;;
70450;SDS011;58869;51.982;4.450;2023-04-24T03:42:58;1.16;;;1.16;;
70450;SDS011;58869;51.982;4.450;2023-04-24T03:45:29;1.04;;;1.04;;
70450;SDS011;58869;51.982;4.450;2023-04-24T03:47:55;0.83;;;0.83;;
70450;SDS011;58869;51.982;4.450;2023-04-24T03:50:26;0.69;;;0.69;;
70450;SDS011;58869;51.982;4.450;2023-04-24T03:56:24;0.87;;;0.87;;
70450;SDS011;58869;51.982;4.450;2023-04-24T03:58:56;0.84;;;0.84;;
70450;SDS011;58869;51.982;4.450;2023-04-24T04:01:39;0.90;;;0.90;;
70450;SDS011;58869;51.982;4.450;2023-04-24T04:07:34;1.12;;;1.12;;
70450;SDS011;58869;51.982;4.450;2023-04-24T04:10:09;1.41;;;1.41;;
70450;SDS011;58869;51.982;4.450;2023-04-24T04:12:35;1.76;;;1.76;;
70450;SDS011;58869;51.982;4.450;2023-04-24T04:28:49;1.94;;;1.94;;
70450;SDS011;58869;51.982;4.450;2023-04-24T04:53:32;4.74;;;4.74;;
70450;SDS011;58869;51.982;4.450;2023-04-24T04:56:04;6.80;;;6.80;;
70450;SDS011;58869;51.982;4.450;2023-04-24T04:58:33;9.31;;;9.28;;
70450;SDS011;58869;51.982;4.450;2023-04-24T05:01:13;10.81;;;10.80;;
70450;SDS011;58869;51.982;4.450;2023-04-24T05:07:46;13.15;;;13.10;;
70450;SDS011;58869;51.982;4.450;2023-04-24T05:13:51;12.90;;;12.82;;
70450;SDS011;58869;51.982;4.450;2023-04-24T05:16:17;11.91;;;11.91;;
70450;SDS011;58869;51.982;4.450;2023-04-24T05:18:42;10.78;;;10.78;;
70450;SDS011;58869;51.982;4.450;2023-04-24T05:21:14;11.81;;;11.81;;
70450;SDS011;58869;51.982;4.450;2023-04-24T05:32:37;12.91;;;12.91;;
70450;SDS011;58869;51.982;4.450;2023-04-24T05:35:03;13.05;;;13.05;;
70450;SDS011;58869;51.982;4.450;2023-04-24T05:37:29;13.31;;;13.31;;
70450;SDS011;58869;51.982;4.450;2023-04-24T05:40:12;13.49;;;13.46;;
70450;SDS011;58869;51.982;4.450;2023-04-24T05:42:56;13.51;;;13.51;;
70450;SDS011;58869;51.982;4.450;2023-04-24T05:45:21;14.40;;;14.40;;
70450;SDS011;58869;51.982;4.450;2023-04-24T05:51:37;12.88;;;12.88;;
70450;SDS011;58869;51.982;4.450;2023-04-24T05:54:10;13.30;;;13.30;;
70450;SDS011;58869;51.982;4.450;2023-04-24T06:02:29;11.34;;;11.34;;
70450;SDS011;58869;51.982;4.450;2023-04-24T06:05:15;10.97;;;10.97;;
70450;SDS011;58869;51.982;4.450;2023-04-24T06:08:11;10.69;;;10.59;;
70450;SDS011;58869;51.982;4.450;2023-04-24T06:10:49;10.00;;;9.93;;
70450;SDS011;58869;51.982;4.450;2023-04-24T06:13:15;9.50;;;9.36;;
70450;SDS011;58869;51.982;4.450;2023-04-24T06:15:46;8.97;;;8.76;;
70450;SDS011;58869;51.982;4.450;2023-04-24T06:18:12;9.16;;;8.60;;
70450;SDS011;58869;51.982;4.450;2023-04-24T06:23:42;8.25;;;7.92;;
70450;SDS011;58869;51.982;4.450;2023-04-24T06:26:17;8.70;;;8.12;;
70450;SDS011;58869;51.982;4.450;2023-04-24T06:28:48;9.19;;;8.38;;
70450;SDS011;58869;51.982;4.450;2023-04-24T06:31:14;8.55;;;7.88;;
70450;SDS011;58869;51.982;4.450;2023-04-24T06:33:45;8.50;;;7.83;;
70450;SDS011;58869;51.982;4.450;2023-04-24T06:36:11;7.89;;;7.40;;
70450;SDS011;58869;51.982;4.450;2023-04-24T06:38:49;7.86;;;7.29;;
70450;SDS011;58869;51.982;4.450;2023-04-24T06:41:24;8.24;;;7.74;;
70450;SDS011;58869;51.982;4.450;2023-04-24T06:43:50;7.74;;;7.20;;
70450;SDS011;58869;51.982;4.450;2023-04-24T06:46:15;8.04;;;7.46;;
70450;SDS011;58869;51.982;4.450;2023-04-24T06:48:41;7.96;;;7.29;;
70450;SDS011;58869;51.982;4.450;2023-04-24T06:51:06;8.43;;;7.47;;
70450;SDS011;58869;51.982;4.450;2023-04-24T06:53:38;8.92;;;7.61;;
70450;SDS011;58869;51.982;4.450;2023-04-24T06:56:04;9.33;;;7.78;;
70450;SDS011;58869;51.982;4.450;2023-04-24T06:58:41;9.56;;;7.81;;
70450;SDS011;58869;51.982;4.450;2023-04-24T07:01:19;9.23;;;7.46;;
70450;SDS011;58869;51.982;4.450;2023-04-24T07:03:44;9.13;;;7.22;;
70450;SDS011;58869;51.982;4.450;2023-04-24T07:06:10;8.48;;;6.54;;
70450;SDS011;58869;51.982;4.450;2023-04-24T07:08:38;8.01;;;6.17;;
70450;SDS011;58869;51.982;4.450;2023-04-24T07:11:13;9.44;;;7.03;;
70450;SDS011;58869;51.982;4.450;2023-04-24T07:13:38;8.70;;;6.51;;
70450;SDS011;58869;51.982;4.450;2023-04-24T07:16:07;9.30;;;6.77;;
70450;SDS011;58869;51.982;4.450;2023-04-24T07:18:33;9.31;;;6.86;;
70450;SDS011;58869;51.982;4.450;2023-04-24T07:20:58;8.83;;;6.55;;
70450;SDS011;58869;51.982;4.450;2023-04-24T07:23:24;8.73;;;6.50;;
70450;SDS011;58869;51.982;4.450;2023-04-24T07:25:50;7.30;;;5.64;;
70450;SDS011;58869;51.982;4.450;2023-04-24T07:28:21;7.22;;;5.60;;
70450;SDS011;58869;51.982;4.450;2023-04-24T07:30:47;7.51;;;5.75;;
70450;SDS011;58869;51.982;4.450;2023-04-24T07:33:12;7.29;;;5.46;;
70450;SDS011;58869;51.982;4.450;2023-04-24T07:35:38;8.25;;;6.11;;
70450;SDS011;58869;51.982;4.450;2023-04-24T07:38:07;7.70;;;5.81;;
70450;SDS011;58869;51.982;4.450;2023-04-24T07:40:50;6.95;;;5.26;;
70450;SDS011;58869;51.982;4.450;2023-04-24T07:43:16;7.94;;;5.97;;
70450;SDS011;58869;51.982;4.450;2023-04-24T07:45:51;7.71;;;5.87;;
70450;SDS011;58869;51.982;4.450;2023-04-24T07:48:16;7.80;;;5.97;;
70450;SDS011;58869;51.982;4.450;2023-04-24T07:50:48;6.85;;;5.22;;
70450;SDS011;58869;51.982;4.450;2023-04-24T07:56:21;7.17;;;5.54;;
70450;SDS011;58869;51.982;4.450;2023-04-24T07:58:50;7.51;;;5.88;;
70450;SDS011;58869;51.982;4.450;2023-04-24T08:01:27;7.19;;;5.54;;
70450;SDS011;58869;51.982;4.450;2023-04-24T08:03:52;6.65;;;5.19;;
70450;SDS011;58869;51.982;4.450;2023-04-24T08:06:35;6.80;;;5.33;;
70450;SDS011;58869;51.982;4.450;2023-04-24T08:09:19;6.96;;;5.40;;
70450;SDS011;58869;51.982;4.450;2023-04-24T08:11:44;6.10;;;4.94;;
70450;SDS011;58869;51.982;4.450;2023-04-24T08:14:10;5.79;;;4.74;;
70450;SDS011;58869;51.982;4.450;2023-04-24T08:16:41;5.79;;;4.76;;
70450;SDS011;58869;51.982;4.450;2023-04-24T08:19:06;5.60;;;4.62;;
70450;SDS011;58869;51.982;4.450;2023-04-24T08:21:32;5.14;;;4.39;;
70450;SDS011;58869;51.982;4.450;2023-04-24T08:24:07;5.62;;;4.70;;
70450;SDS011;58869;51.982;4.450;2023-04-24T08:26:33;5.09;;;4.27;;
70450;SDS011;58869;51.982;4.450;2023-04-24T08:29:13;5.18;;;4.23;;
70450;SDS011;58869;51.982;4.450;2023-04-24T08:31:54;4.77;;;3.92;;
70450;SDS011;58869;51.982;4.450;2023-04-24T08:34:57;4.86;;;4.05;;
70450;SDS011;58869;51.982;4.450;2023-04-24T08:37:23;4.92;;;4.02;;
70450;SDS011;58869;51.982;4.450;2023-04-24T08:39:55;4.84;;;3.92;;
70450;SDS011;58869;51.982;4.450;2023-04-24T08:42:21;4.26;;;3.48;;
70450;SDS011;58869;51.982;4.450;2023-04-24T08:44:47;4.47;;;3.67;;
70450;SDS011;58869;51.982;4.450;2023-04-24T08:47:34;3.95;;;3.23;;
70450;SDS011;58869;51.982;4.450;2023-04-24T08:50:00;3.12;;;2.64;;
70450;SDS011;58869;51.982;4.450;2023-04-24T08:52:40;2.76;;;2.35;;
70450;SDS011;58869;51.982;4.450;2023-04-24T08:55:07;2.43;;;2.07;;
70450;SDS011;58869;51.982;4.450;2023-04-24T08:57:33;2.62;;;2.25;;
70450;SDS011;58869;51.982;4.450;2023-04-24T09:03:22;2.78;;;2.29;;
70450;SDS011;58869;51.982;4.450;2023-04-24T09:05:54;2.86;;;2.34;;
70450;SDS011;58869;51.982;4.450;2023-04-24T09:08:20;3.09;;;2.52;;
70450;SDS011;58869;51.982;4.450;2023-04-24T09:14:20;2.96;;;2.31;;
70450;SDS011;58869;51.982;4.450;2023-04-24T09:16:48;2.90;;;2.26;;
70450;SDS011;58869;51.982;4.450;2023-04-24T09:19:13;3.23;;;2.46;;
70450;SDS011;58869;51.982;4.450;2023-04-24T09:25:01;3.01;;;2.32;;
70450;SDS011;58869;51.982;4.450;2023-04-24T09:28:12;3.01;;;2.26;;
70450;SDS011;58869;51.982;4.450;2023-04-24T09:31:01;2.76;;;2.00;;
70450;SDS011;58869;51.982;4.450;2023-04-24T09:42:56;3.47;;;2.44;;
70450;SDS011;58869;51.982;4.450;2023-04-24T09:45:41;3.25;;;2.27;;
70450;SDS011;58869;51.982;4.450;2023-04-24T09:48:19;3.73;;;2.54;;
70450;SDS011;58869;51.982;4.450;2023-04-24T09:50:47;3.39;;;2.31;;
70450;SDS011;58869;51.982;4.450;2023-04-24T09:53:13;3.78;;;2.54;;
70450;SDS011;58869;51.982;4.450;2023-04-24T09:55:39;3.23;;;2.16;;
70450;SDS011;58869;51.982;4.450;2023-04-24T09:58:16;3.56;;;2.44;;
70450;SDS011;58869;51.982;4.450;2023-04-24T10:04:03;3.68;;;2.51;;
70450;SDS011;58869;51.982;4.450;2023-04-24T10:06:41;3.63;;;2.51;;
70450;SDS011;58869;51.982;4.450;2023-04-24T10:15:10;3.44;;;2.38;;
70450;SDS011;58869;51.982;4.450;2023-04-24T10:21:16;3.88;;;2.66;;
70450;SDS011;58869;51.982;4.450;2023-04-24T10:23:42;4.44;;;3.05;;
70450;SDS011;58869;51.982;4.450;2023-04-24T10:38:12;5.41;;;3.52;;
70450;SDS011;58869;51.982;4.450;2023-04-24T10:40:42;5.11;;;3.33;;
70450;SDS011;58869;51.982;4.450;2023-04-24T10:45:36;5.29;;;3.50;;
70450;SDS011;58869;51.982;4.450;2023-04-24T10:48:09;4.88;;;3.28;;
70450;SDS011;58869;51.982;4.450;2023-04-24T10:54:54;4.34;;;2.86;;
70450;SDS011;58869;51.982;4.450;2023-04-24T10:57:40;4.35;;;2.85;;
70450;SDS011;58869;51.982;4.450;2023-04-24T11:00:39;5.13;;;3.32;;
70450;SDS011;58869;51.982;4.450;2023-04-24T11:03:06;4.51;;;2.89;;
70450;SDS011;58869;51.982;4.450;2023-04-24T11:05:55;3.69;;;2.38;;
70450;SDS011;58869;51.982;4.450;2023-04-24T11:11:34;2.50;;;1.72;;
70450;SDS011;58869;51.982;4.450;2023-04-24T11:14:13;1.99;;;1.39;;
70450;SDS011;58869;51.982;4.450;2023-04-24T11:17:37;1.74;;;1.22;;
70450;SDS011;58869;51.982;4.450;2023-04-24T11:20:10;2.66;;;1.86;;
70450;SDS011;58869;51.982;4.450;2023-04-24T11:22:41;2.46;;;1.73;;
70450;SDS011;58869;51.982;4.450;2023-04-24T11:25:09;2.63;;;1.87;;
70450;SDS011;58869;51.982;4.450;2023-04-24T11:27:48;2.35;;;1.71;;
70450;SDS011;58869;51.982;4.450;2023-04-24T11:30:18;2.66;;;1.94;;
70450;SDS011;58869;51.982;4.450;2023-04-24T11:35:50;3.25;;;2.31;;
70450;SDS011;58869;51.982;4.450;2023-04-24T11:38:16;2.90;;;2.11;;
70450;SDS011;58869;51.982;4.450;2023-04-24T11:40:51;3.20;;;2.31;;
70450;SDS011;58869;51.982;4.450;2023-04-24T11:43:26;3.44;;;2.55;;
70450;SDS011;58869;51.982;4.450;2023-04-24T11:45:54;3.11;;;2.31;;
70450;SDS011;58869;51.982;4.450;2023-04-24T11:48:28;3.91;;;2.83;;
70450;SDS011;58869;51.982;4.450;2023-04-24T11:54:07;4.85;;;3.42;;
70450;SDS011;58869;51.982;4.450;2023-04-24T11:56:37;4.98;;;3.50;;
70450;SDS011;58869;51.982;4.450;2023-04-24T11:59:05;5.28;;;3.73;;
70450;SDS011;58869;51.982;4.450;2023-04-24T12:01:47;5.06;;;3.60;;
70450;SDS011;58869;51.982;4.450;2023-04-24T12:04:14;4.12;;;3.05;;
70450;SDS011;58869;51.982;4.450;2023-04-24T12:07:03;3.97;;;3.01;;
70450;SDS011;58869;51.982;4.450;2023-04-24T12:10:03;4.79;;;3.52;;
70450;SDS011;58869;51.982;4.450;2023-04-24T12:12:24;5.30;;;3.88;;
70450;SDS011;58869;51.982;4.450;2023-04-24T12:14:56;5.85;;;4.21;;
70450;SDS011;58869;51.982;4.450;2023-04-24T12:17:26;5.13;;;3.82;;
70450;SDS011;58869;51.982;4.450;2023-04-24T12:19:56;5.00;;;3.84;;
70450;SDS011;58869;51.982;4.450;2023-04-24T12:25:55;5.76;;;4.25;;
70450;SDS011;58869;51.982;4.450;2023-04-24T12:28:38;6.14;;;4.56;;
70450;SDS011;58869;51.982;4.450;2023-04-24T12:31:04;6.84;;;5.10;;
70450;SDS011;58869;51.982;4.450;2023-04-24T12:33:56;6.50;;;4.96;;
70450;SDS011;58869;51.982;4.450;2023-04-24T12:44:39;5.19;;;4.00;;
70450;SDS011;58869;51.982;4.450;2023-04-24T12:47:07;5.93;;;4.61;;
70450;SDS011;58869;51.982;4.450;2023-04-24T12:49:43;6.20;;;4.74;;
70450;SDS011;58869;51.982;4.450;2023-04-24T12:52:23;6.02;;;4.64;;
70450;SDS011;58869;51.982;4.450;2023-04-24T12:54:54;6.20;;;4.83;;
70450;SDS011;58869;51.982;4.450;2023-04-24T12:57:36;7.37;;;5.62;;
70450;SDS011;58869;51.982;4.450;2023-04-24T13:03:42;6.27;;;4.76;;
70450;SDS011;58869;51.982;4.450;2023-04-24T13:09:33;7.54;;;5.74;;
70450;SDS011;58869;51.982;4.450;2023-04-24T13:12:03;6.80;;;5.29;;
70450;SDS011;58869;51.982;4.450;2023-04-24T13:27:55;5.49;;;4.80;;
70450;SDS011;58869;51.982;4.450;2023-04-24T13:30:21;5.69;;;4.88;;
70450;SDS011;58869;51.982;4.450;2023-04-24T13:32:52;5.76;;;4.94;;
70450;SDS011;58869;51.982;4.450;2023-04-24T13:35:28;5.79;;;5.03;;
70450;SDS011;58869;51.982;4.450;2023-04-24T13:44:16;4.53;;;4.04;;
70450;SDS011;58869;51.982;4.450;2023-04-24T13:46:43;4.31;;;3.91;;
70450;SDS011;58869;51.982;4.450;2023-04-24T13:49:11;4.55;;;4.12;;
70450;SDS011;58869;51.982;4.450;2023-04-24T13:51:37;4.62;;;4.13;;
70450;SDS011;58869;51.982;4.450;2023-04-24T13:54:03;4.75;;;4.26;;
70450;SDS011;58869;51.982;4.450;2023-04-24T13:56:29;4.97;;;4.46;;
70450;SDS011;58869;51.982;4.450;2023-04-24T13:58:54;4.94;;;4.47;;
70450;SDS011;58869;51.982;4.450;2023-04-24T14:04:53;6.05;;;5.42;;
70450;SDS011;58869;51.982;4.450;2023-04-24T14:13:35;6.34;;;5.58;;
70450;SDS011;58869;51.982;4.450;2023-04-24T14:16:10;7.00;;;6.04;;
70450;SDS011;58869;51.982;4.450;2023-04-24T14:18:36;7.20;;;6.22;;
70450;SDS011;58869;51.982;4.450;2023-04-24T14:24:29;7.51;;;6.55;;
70450;SDS011;58869;51.982;4.450;2023-04-24T14:26:55;7.28;;;6.26;;
70450;SDS011;58869;51.982;4.450;2023-04-24T14:29:21;7.53;;;6.55;;
70450;SDS011;58869;51.982;4.450;2023-04-24T14:31:53;7.50;;;6.50;;
70450;SDS011;58869;51.982;4.450;2023-04-24T14:34:18;6.84;;;5.98;;
70450;SDS011;58869;51.982;4.450;2023-04-24T14:36:52;7.17;;;6.17;;
70450;SDS011;58869;51.982;4.450;2023-04-24T14:39:33;6.99;;;6.06;;
70450;SDS011;58869;51.982;4.450;2023-04-24T14:44:53;6.99;;;6.02;;
70450;SDS011;58869;51.982;4.450;2023-04-24T14:47:38;6.92;;;5.95;;
70450;SDS011;58869;51.982;4.450;2023-04-24T14:50:03;6.97;;;6.02;;
70450;SDS011;58869;51.982;4.450;2023-04-24T14:52:39;6.32;;;5.55;;
70450;SDS011;58869;51.982;4.450;2023-04-24T14:55:05;6.08;;;5.50;;
70450;SDS011;58869;51.982;4.450;2023-04-24T14:57:32;5.53;;;5.05;;
70450;SDS011;58869;51.982;4.450;2023-04-24T15:00:10;6.20;;;5.51;;
70450;SDS011;58869;51.982;4.450;2023-04-24T15:06:02;5.26;;;4.81;;
70450;SDS011;58869;51.982;4.450;2023-04-24T15:08:30;5.73;;;5.21;;
70450;SDS011;58869;51.982;4.450;2023-04-24T15:11:04;5.36;;;4.99;;
70450;SDS011;58869;51.982;4.450;2023-04-24T15:13:30;6.46;;;5.83;;
70450;SDS011;58869;51.982;4.450;2023-04-24T15:16:05;7.13;;;6.23;;
70450;SDS011;58869;51.982;4.450;2023-04-24T15:18:46;6.93;;;6.19;;
70450;SDS011;58869;51.982;4.450;2023-04-24T15:24:27;7.19;;;6.44;;
70450;SDS011;58869;51.982;4.450;2023-04-24T15:26:53;8.00;;;7.13;;
70450;SDS011;58869;51.982;4.450;2023-04-24T15:29:19;8.14;;;7.25;;
70450;SDS011;58869;51.982;4.450;2023-04-24T15:31:44;7.61;;;6.96;;
70450;SDS011;58869;51.982;4.450;2023-04-24T15:34:10;6.86;;;6.27;;
70450;SDS011;58869;51.982;4.450;2023-04-24T15:36:47;7.48;;;6.66;;
70450;SDS011;58869;51.982;4.450;2023-04-24T15:39:16;7.62;;;6.79;;
70450;SDS011;58869;51.982;4.450;2023-04-24T15:41:41;7.42;;;6.60;;
70450;SDS011;58869;51.982;4.450;2023-04-24T15:44:22;8.57;;;7.49;;
70450;SDS011;58869;51.982;4.450;2023-04-24T15:47:03;7.64;;;6.85;;
70450;SDS011;58869;51.982;4.450;2023-04-24T15:49:28;7.56;;;6.86;;
70450;SDS011;58869;51.982;4.450;2023-04-24T15:51:54;7.46;;;6.62;;
70450;SDS011;58869;51.982;4.450;2023-04-24T15:54:19;7.64;;;6.80;;
70450;SDS011;58869;51.982;4.450;2023-04-24T15:56:51;6.86;;;6.19;;
70450;SDS011;58869;51.982;4.450;2023-04-24T15:59:17;4.98;;;4.68;;
70450;SDS011;58869;51.982;4.450;2023-04-24T16:02:01;5.67;;;5.35;;
70450;SDS011;58869;51.982;4.450;2023-04-24T16:04:34;5.59;;;5.32;;
70450;SDS011;58869;51.982;4.450;2023-04-24T16:07:06;5.40;;;5.17;;
70450;SDS011;58869;51.982;4.450;2023-04-24T16:09:34;5.66;;;5.46;;
70450;SDS011;58869;51.982;4.450;2023-04-24T16:12:02;6.36;;;6.07;;
70450;SDS011;58869;51.982;4.450;2023-04-24T16:14:27;6.66;;;6.19;;
70450;SDS011;58869;51.982;4.450;2023-04-24T16:16:53;6.28;;;5.91;;
70450;SDS011;58869;51.982;4.450;2023-04-24T16:19:20;6.12;;;5.77;;
70450;SDS011;58869;51.982;4.450;2023-04-24T16:21:45;6.36;;;5.96;;
70450;SDS011;58869;51.982;4.450;2023-04-24T16:24:11;6.09;;;5.63;;
70450;SDS011;58869;51.982;4.450;2023-04-24T16:26:37;6.19;;;5.80;;
70450;SDS011;58869;51.982;4.450;2023-04-24T16:29:02;6.29;;;5.79;;
70450;SDS011;58869;51.982;4.450;2023-04-24T16:31:28;6.08;;;5.60;;
70450;SDS011;58869;51.982;4.450;2023-04-24T16:33:54;6.38;;;5.83;;
70450;SDS011;58869;51.982;4.450;2023-04-24T16:36:19;6.39;;;5.82;;
70450;SDS011;58869;51.982;4.450;2023-04-24T16:38:45;6.13;;;5.58;;
70450;SDS011;58869;51.982;4.450;2023-04-24T16:41:11;6.62;;;6.03;;
70450;SDS011;58869;51.982;4.450;2023-04-24T16:43:36;6.75;;;6.04;;
70450;SDS011;58869;51.982;4.450;2023-04-24T16:46:02;7.54;;;6.74;;
70450;SDS011;58869;51.982;4.450;2023-04-24T16:48:28;7.52;;;6.74;;
70450;SDS011;58869;51.982;4.450;2023-04-24T16:51:14;7.49;;;6.76;;
70450;SDS011;58869;51.982;4.450;2023-04-24T16:53:43;7.13;;;6.45;;
70450;SDS011;58869;51.982;4.450;2023-04-24T16:56:20;7.03;;;6.26;;
70450;SDS011;58869;51.982;4.450;2023-04-24T16:58:46;6.90;;;6.30;;
70450;SDS011;58869;51.982;4.450;2023-04-24T17:01:14;7.42;;;6.64;;
70450;SDS011;58869;51.982;4.450;2023-04-24T17:03:40;6.90;;;6.07;;
70450;SDS011;58869;51.982;4.450;2023-04-24T17:06:20;7.10;;;6.27;;
70450;SDS011;58869;51.982;4.450;2023-04-24T17:08:49;7.12;;;6.38;;
70450;SDS011;58869;51.982;4.450;2023-04-24T17:11:18;6.86;;;6.26;;
70450;SDS011;58869;51.982;4.450;2023-04-24T17:13:50;6.40;;;5.62;;
70450;SDS011;58869;51.982;4.450;2023-04-24T17:16:15;7.59;;;6.23;;
70450;SDS011;58869;51.982;4.450;2023-04-24T17:18:44;7.40;;;5.99;;
70450;SDS011;58869;51.982;4.450;2023-04-24T17:21:09;7.27;;;6.02;;
70450;SDS011;58869;51.982;4.450;2023-04-24T17:23:53;7.64;;;6.32;;
70450;SDS011;58869;51.982;4.450;2023-04-24T17:26:23;7.55;;;6.23;;
70450;SDS011;58869;51.982;4.450;2023-04-24T17:38:34;7.65;;;6.14;;
70450;SDS011;58869;51.982;4.450;2023-04-24T17:41:06;8.65;;;6.93;;
70450;SDS011;58869;51.982;4.450;2023-04-24T17:43:40;8.44;;;6.62;;
70450;SDS011;58869;51.982;4.450;2023-04-24T17:46:21;7.90;;;6.26;;
70450;SDS011;58869;51.982;4.450;2023-04-24T17:48:53;7.60;;;6.07;;
70450;SDS011;58869;51.982;4.450;2023-04-24T17:51:34;6.52;;;5.11;;
70450;SDS011;58869;51.982;4.450;2023-04-24T18:06:47;6.60;;;5.29;;
70450;SDS011;58869;51.982;4.450;2023-04-24T18:09:21;7.52;;;5.94;;
70450;SDS011;58869;51.982;4.450;2023-04-24T18:11:53;7.61;;;5.92;;
70450;SDS011;58869;51.982;4.450;2023-04-24T18:14:18;7.73;;;6.02;;
70450;SDS011;58869;51.982;4.450;2023-04-24T18:16:53;6.89;;;5.48;;
70450;SDS011;58869;51.982;4.450;2023-04-24T18:19:18;7.35;;;5.87;;
70450;SDS011;58869;51.982;4.450;2023-04-24T18:21:44;7.19;;;5.69;;
70450;SDS011;58869;51.982;4.450;2023-04-24T18:27:42;6.09;;;5.03;;
70450;SDS011;58869;51.982;4.450;2023-04-24T18:30:08;5.58;;;4.70;;
70450;SDS011;58869;51.982;4.450;2023-04-24T18:32:53;5.27;;;4.37;;
70450;SDS011;58869;51.982;4.450;2023-04-24T18:35:34;5.28;;;4.41;;
70450;SDS011;58869;51.982;4.450;2023-04-24T18:38:11;5.32;;;4.46;;
70450;SDS011;58869;51.982;4.450;2023-04-24T18:40:40;6.40;;;5.35;;
70450;SDS011;58869;51.982;4.450;2023-04-24T18:43:11;5.64;;;4.80;;
70450;SDS011;58869;51.982;4.450;2023-04-24T18:45:48;5.11;;;4.28;;
70450;SDS011;58869;51.982;4.450;2023-04-24T18:48:14;4.15;;;3.49;;
70450;SDS011;58869;51.982;4.450;2023-04-24T18:50:39;3.65;;;3.08;;
70450;SDS011;58869;51.982;4.450;2023-04-24T18:53:08;3.06;;;2.58;;